Brandonville, West Virginia
Current Conditions -  °F | °C
As of 3:53 PM on Thursday 20 Nov 2014 (Local Time) from KMGW Reporting Station
Clear Clear  
Wind Chill: 28°   Ceiling: Unl
Heat Index: 34°   Visibility: 10mi
Dew Point: 12°   Wind: 7mph
Humidity: 40%   Direction: 240°WSW
Pressure: 30.02"   Gusts: NA
Location:  39.6431°N, 79.6244°W
Report Text: KMGW 202053Z 24006KT 10SM CLR 01/M11 A3002 RMK AO2 SLP175 T00111111 53005
Loading
Personal Weather Stations






























Interactive Weather Map New forecast layout! Learn more

10-Day Weather Forecast

Advertisements
Track Severe Weather on mobile